To NAV CANADA Home Page Login to a new session Search on AWWS site Feedback and Comments Disclaimer Vers la page française équivalente Tips FAQ What's new on the site To the Forecasts and Observations / NOTAM section To "File a Flight Plan" website Publications and other links Update of the User's profile FIC Telephone Numbers My Weather Data Folder Route Weather Data Regional Weather Data Local Weather Data To the Forecasts and Observations / NOTAM section
Request Generated 03/06/2015 at 05:54:13 UTC . Weather information available at that time is displayed.

METAR/TAF

HALIFAX/SHEARWATER/NS    

METAR CYAW 060200Z 36012KT 15SM OVC140 M08/M16 A3006 RMK AS8 DA-2894FT LAST OBS/NXT 061200 UTC SLP181=

TAF AMD CYAW 060201Z 0602/0608 FCST CNCLD DUE END OF FLYING PROGRAM
RMK NXT FCST BY 061315Z=
Your time UTC time
Weather data provided by Environment Canada and NAV CANADA